Time;durP1;ratioP1;P1;durP2;ratioP2;P2;SDS_P1;SDS_P2;PMS_P1;PMS_P2;Temp;Humidity;BMP_temperature;BMP_pressure;BME280_temperature;BME280_humidity;BME280_pressure;Samples;Min_cycle;Max_cycle;Signal;HPM_P1;HPM_P2
2023/11/03 00:03:38;;;;;;;5.30;4.50;;;;;;;10.20;90.32;97221.51;429865;1276;139573;-65
2023/11/03 00:13:45;;;;;;;5.90;5.40;;;;;;;9.93;92.39;97207.66;429973;1270;139213;-65
2023/11/03 00:23:51;;;;;;;5.90;5.20;;;;;;;9.71;94.58;97189.41;430022;1276;140079;-64
2023/11/03 00:33:56;;;;;;;6.00;4.50;;;;;;;9.55;96.98;97174.22;429685;1275;140135;-64
2023/11/03 00:44:02;;;;;;;6.00;4.90;;;;;;;9.43;99.84;97147.27;429969;1274;139663;-65
2023/11/03 00:54:09;;;;;;;6.60;5.20;;;;;;;9.35;100.00;97137.91;430291;1270;140571;-65
2023/11/03 01:04:15;;;;;;;4.50;4.10;;;;;;;9.29;100.00;97133.73;431138;1276;140547;-66
2023/11/03 01:14:22;;;;;;;7.80;4.20;;;;;;;9.29;100.00;97139.87;429866;1273;140584;-66
2023/11/03 01:24:27;;;;;;;6.00;4.20;;;;;;;9.27;100.00;97135.17;429952;1270;139968;-65
2023/11/03 01:34:33;;;;;;;4.70;3.90;;;;;;;9.25;100.00;97132.59;429777;1273;139375;-66
2023/11/03 01:44:39;;;;;;;4.70;3.50;;;;;;;9.20;100.00;97121.23;430104;1270;139410;-66
2023/11/03 01:54:45;;;;;;;7.90;3.90;;;;;;;9.12;100.00;97115.52;430270;1274;139289;-68
2023/11/03 02:04:51;;;;;;;5.30;4.10;;;;;;;9.07;100.00;97109.14;429873;1270;139377;-67
2023/11/03 02:14:57;;;;;;;4.90;3.60;;;;;;;9.04;100.00;97094.10;429705;1271;139701;-67
2023/11/03 02:25:04;;;;;;;4.60;4.20;;;;;;;9.04;100.00;97086.15;430110;1275;139805;-67
2023/11/03 02:35:11;;;;;;;5.10;4.20;;;;;;;9.04;100.00;97059.41;430112;1271;139977;-65
2023/11/03 02:45:17;;;;;;;3.90;3.60;;;;;;;9.04;100.00;97044.59;430380;1276;139467;-65
2023/11/03 02:55:23;;;;;;;5.70;4.30;;;;;;;9.03;100.00;97024.95;430350;1275;139383;-66
2023/11/03 03:05:29;;;;;;;4.70;3.90;;;;;;;9.01;100.00;97012.27;429997;1270;139399;-66
2023/11/03 03:15:34;;;;;;;4.80;4.20;;;;;;;8.99;100.00;96979.42;429867;1276;139533;-65
2023/11/03 03:25:40;;;;;;;4.40;3.50;;;;;;;9.01;100.00;96966.86;430427;1270;139325;-65
2023/11/03 03:35:46;;;;;;;5.30;4.80;;;;;;;9.01;100.00;96972.48;430225;1274;139586;-65
2023/11/03 03:45:52;;;;;;;6.60;4.90;;;;;;;9.00;100.00;96966.68;429845;1275;140326;-65
2023/11/03 03:55:58;;;;;;;6.20;4.10;;;;;;;8.99;100.00;96966.77;430024;1272;142265;-64
2023/11/03 04:06:04;;;;;;;4.20;3.80;;;;;;;8.97;100.00;96950.44;430160;1271;139561;-64
2023/11/03 04:16:10;;;;;;;4.90;3.80;;;;;;;8.98;100.00;96924.05;430238;1273;139197;-65
2023/11/03 04:26:16;;;;;;;5.20;4.60;;;;;;;8.99;100.00;96905.33;430073;1275;139558;-65
2023/11/03 04:36:22;;;;;;;4.60;3.80;;;;;;;9.01;100.00;96891.28;429896;1270;140369;-66
2023/11/03 04:46:29;;;;;;;7.50;4.80;;;;;;;9.05;100.00;96867.39;429890;1273;139289;-65
2023/11/03 04:56:34;;;;;;;4.00;3.60;;;;;;;9.08;100.00;96860.60;429836;1275;139409;-66
2023/11/03 05:06:41;;;;;;;6.10;5.30;;;;;;;9.13;100.00;96843.20;430072;1274;139074;-67
2023/11/03 05:16:47;;;;;;;5.20;3.80;;;;;;;9.17;100.00;96834.42;430891;1270;139294;-66
2023/11/03 05:26:53;;;;;;;4.20;3.90;;;;;;;9.21;100.00;96834.89;429844;1270;139513;-67
2023/11/03 05:36:58;;;;;;;5.80;3.40;;;;;;;9.23;100.00;96818.23;430013;1274;140350;-68
2023/11/03 05:47:05;;;;;;;5.20;3.90;;;;;;;9.30;100.00;96819.70;429810;1271;140591;-64
2023/11/03 05:57:11;;;;;;;4.40;4.00;;;;;;;9.34;100.00;96807.19;430488;1270;139718;-68
2023/11/03 06:07:17;;;;;;;3.60;3.30;;;;;;;9.38;100.00;96806.77;431028;1273;139690;-67
2023/11/03 06:17:23;;;;;;;5.30;4.10;;;;;;;9.43;100.00;96800.20;431291;1270;139325;-68
2023/11/03 06:27:31;;;;;;;4.20;3.60;;;;;;;9.48;100.00;96788.27;431006;1274;140628;-68
2023/11/03 06:37:37;;;;;;;5.50;3.90;;;;;;;9.55;100.00;96782.13;431350;1275;139383;-68
2023/11/03 06:47:44;;;;;;;4.10;3.70;;;;;;;9.62;100.00;96780.55;431377;1269;139355;-71
2023/11/03 06:57:51;;;;;;;5.00;2.70;;;;;;;9.68;100.00;96793.33;431107;1270;161922;-69
2023/11/03 07:07:58;;;;;;;3.30;2.40;;;;;;;9.73;100.00;96796.98;430793;1272;139201;-62
2023/11/03 07:18:04;;;;;;;4.70;3.40;;;;;;;9.78;100.00;96802.07;430960;1270;140159;-69
2023/11/03 07:28:11;;;;;;;4.20;3.10;;;;;;;9.81;100.00;96798.25;432288;1270;139647;-75
2023/11/03 07:38:17;;;;;;;4.70;3.20;;;;;;;9.89;100.00;96801.65;430906;1270;139871;-73
2023/11/03 07:48:27;;;;;;;3.40;3.00;;;;;;;9.98;100.00;96788.95;430863;1270;139248;-72
2023/11/03 07:58:33;;;;;;;5.60;2.30;;;;;;;10.14;100.00;96799.02;430940;1270;140071;-75
2023/11/03 08:08:39;;;;;;;3.70;3.60;;;;;;;10.31;100.00;96809.49;432518;1269;140474;-71
2023/11/03 08:18:45;;;;;;;5.30;3.20;;;;;;;10.50;100.00;96809.93;434114;1270;139360;-73
2023/11/03 08:28:51;;;;;;;3.50;2.70;;;;;;;10.74;100.00;96803.19;431469;1275;140485;-75
2023/11/03 08:38:57;;;;;;;6.00;3.20;;;;;;;11.00;100.00;96808.16;434218;1272;139756;-75
2023/11/03 08:49:04;;;;;;;2.90;2.60;;;;;;;11.05;100.00;96794.09;434257;1270;139256;-68
2023/11/03 08:59:12;;;;;;;2.40;2.10;;;;;;;11.08;100.00;96782.30;431077;1270;139882;-71
2023/11/03 09:09:18;;;;;;;;;;;;;;;11.19;100.00;96772.48;432945;1270;140129;-64
2023/11/03 09:19:24;;;;;;;5.30;2.50;;;;;;;11.32;100.00;96757.37;431300;1273;126519;-66
2023/11/03 09:29:29;;;;;;;5.10;2.90;;;;;;;11.48;100.00;96757.53;430046;1270;140244;-66
2023/11/03 09:39:36;;;;;;;4.90;2.70;;;;;;;11.55;100.00;96752.77;429847;1273;139356;-64
2023/11/03 09:49:43;;;;;;;4.60;2.30;;;;;;;11.66;100.00;96727.85;432820;1269;139381;-61
2023/11/03 09:59:49;;;;;;;5.50;3.40;;;;;;;11.58;100.00;96725.20;429959;1275;139284;-59
2023/11/03 10:09:56;;;;;;;3.00;2.70;;;;;;;11.55;100.00;96725.11;429913;1270;139805;-64
2023/11/03 10:20:03;;;;;;;4.50;3.10;;;;;;;11.58;100.00;96722.68;429804;1272;139846;-69
2023/11/03 10:30:11;;;;;;;4.30;3.20;;;;;;;11.59;100.00;96719.65;429987;1270;140491;-74
2023/11/03 10:40:16;;;;;;;;;;;;;;;11.60;100.00;96714.32;433402;1270;139909;-76
2023/11/03 10:50:32;;;;;;;5.80;4.20;;;;;;;11.47;100.00;96703.16;434363;1274;130128;-73
2023/11/03 11:00:45;;;;;;;8.90;5.10;;;;;;;11.42;100.00;96692.39;433712;1271;141172;-80
2023/11/03 11:10:51;;;;;;;5.90;4.90;;;;;;;11.44;100.00;96678.08;433745;1273;139316;-79
2023/11/03 11:21:02;;;;;;;6.50;3.70;;;;;;;11.56;100.00;96672.98;434162;1270;139250;-81
2023/11/03 11:31:45;;;;;;;9.40;4.50;;;;;;;11.56;100.00;96659.40;434088;1273;139347;-72
2023/11/03 11:41:54;;;;;;;7.50;5.50;;;;;;;11.54;100.00;96634.30;433643;1274;139637;-70
2023/11/03 11:52:01;;;;;;;8.90;6.60;;;;;;;11.49;100.00;96618.51;433345;1270;139722;-71
2023/11/03 12:02:08;;;;;;;7.20;4.80;;;;;;;11.37;100.00;96606.98;429360;1274;140451;-70
2023/11/03 12:12:15;;;;;;;7.20;4.40;;;;;;;11.18;100.00;96608.73;434253;1270;139181;-74
2023/11/03 12:22:21;;;;;;;6.70;3.90;;;;;;;10.97;100.00;96603.79;433563;1274;139433;-75
2023/11/03 12:32:28;;;;;;;4.80;4.20;;;;;;;10.79;100.00;96591.37;433987;1273;140510;-67
2023/11/03 12:42:43;;;;;;;5.60;5.10;;;;;;;10.65;100.00;96590.86;430447;1274;139360;-64
2023/11/03 12:52:51;;;;;;;5.40;4.50;;;;;;;10.50;100.00;96586.80;430818;1270;140056;-71
2023/11/03 13:02:57;;;;;;;9.40;6.30;;;;;;;10.32;100.00;96590.66;430865;1274;139897;-78
2023/11/03 13:13:05;;;;;;;8.10;4.50;;;;;;;10.14;100.00;96575.95;435040;1270;139401;-82
2023/11/03 13:23:11;;;;;;;6.20;5.50;;;;;;;10.01;100.00;96562.20;434079;1270;139449;-72
2023/11/03 13:33:21;;;;;;;7.00;5.30;;;;;;;9.90;100.00;96539.25;434364;1275;139849;-72
2023/11/03 13:43:29;;;;;;;7.80;5.50;;;;;;;9.84;100.00;96508.83;430067;1274;139535;-64
2023/11/03 13:53:36;;;;;;;7.40;5.40;;;;;;;9.82;100.00;96491.42;430816;1270;139731;-69
2023/11/03 14:03:42;;;;;;;6.50;5.80;;;;;;;9.80;100.00;96438.45;430998;1274;140175;-72
2023/11/03 14:13:48;;;;;;;8.50;5.80;;;;;;;9.82;100.00;96426.92;430626;1276;139221;-64
2023/11/03 14:23:54;;;;;;;7.20;6.10;;;;;;;9.88;100.00;96432.39;429953;1273;139597;-65
2023/11/03 14:34:03;;;;;;;9.40;6.30;;;;;;;9.92;100.00;96420.45;429816;1271;139973;-62
2023/11/03 14:44:13;;;;;;;5.40;4.90;;;;;;;9.95;100.00;96445.07;429661;1271;140047;-62
2023/11/03 14:54:19;;;;;;;6.80;5.50;;;;;;;9.97;100.00;96457.52;430106;1276;139388;-67
2023/11/03 15:04:25;;;;;;;6.70;6.00;;;;;;;9.99;100.00;96442.59;430370;1276;140921;-62
2023/11/03 15:14:31;;;;;;;9.20;6.30;;;;;;;10.01;100.00;96433.20;430550;1271;139321;-62
2023/11/03 15:24:37;;;;;;;6.50;5.80;;;;;;;9.99;100.00;96420.67;429769;1270;139428;-62
2023/11/03 15:34:43;;;;;;;9.10;8.00;;;;;;;9.93;100.00;96417.85;429544;1270;139344;-66
2023/11/03 15:44:49;;;;;;;9.00;8.10;;;;;;;9.92;100.00;96393.31;429723;1276;139835;-66
2023/11/03 15:54:55;;;;;;;7.70;5.80;;;;;;;9.91;100.00;96388.34;429607;1276;139350;-63
2023/11/03 16:05:01;;;;;;;9.00;6.40;;;;;;;9.91;100.00;96387.93;429924;1276;139380;-63
2023/11/03 16:15:08;;;;;;;10.40;7.60;;;;;;;9.91;100.00;96404.34;429634;1276;140398;-66
2023/11/03 16:25:14;;;;;;;8.90;7.50;;;;;;;9.92;100.00;96402.77;430787;1274;140473;-64
2023/11/03 16:35:21;;;;;;;10.00;8.50;;;;;;;9.95;100.00;96405.35;430425;1276;139242;-64
2023/11/03 16:45:28;;;;;;;13.50;9.00;;;;;;;10.01;100.00;96386.58;431956;1275;139473;-68
2023/11/03 16:55:33;;;;;;;9.60;8.00;;;;;;;10.05;100.00;96370.41;430501;1270;139749;-63
2023/11/03 17:05:39;;;;;;;9.90;7.90;;;;;;;10.08;100.00;96343.19;429937;1274;139719;-77
2023/11/03 17:15:45;;;;;;;9.50;8.10;;;;;;;10.09;100.00;96349.50;429816;1276;139277;-74
2023/11/03 17:25:51;;;;;;;11.60;9.10;;;;;;;10.10;100.00;96352.67;433435;1274;141174;-67
2023/11/03 17:35:57;;;;;;;10.90;9.50;;;;;;;10.11;100.00;96349.46;430039;1276;140077;-69
2023/11/03 17:46:04;;;;;;;10.90;7.80;;;;;;;10.12;100.00;96351.13;430179;1276;139711;-68
2023/11/03 17:56:10;;;;;;;11.30;9.10;;;;;;;10.13;100.00;96358.76;430944;1276;139606;-72
2023/11/03 18:06:16;;;;;;;12.90;10.40;;;;;;;10.12;100.00;96343.55;429958;1276;139689;-73
2023/11/03 18:16:25;;;;;;;8.90;7.90;;;;;;;10.12;100.00;96333.14;433142;1275;139784;-74
2023/11/03 18:26:31;;;;;;;10.30;9.30;;;;;;;10.11;100.00;96326.46;433625;1276;142350;-72
2023/11/03 18:36:38;;;;;;;14.60;9.50;;;;;;;10.10;100.00;96332.42;433477;1276;139577;-70
2023/11/03 18:46:44;;;;;;;11.10;8.90;;;;;;;10.11;100.00;96315.25;430304;1275;140173;-67
2023/11/03 18:56:50;;;;;;;15.60;12.30;;;;;;;10.12;100.00;96318.81;429125;1276;306660;-66
2023/11/03 19:07:00;;;;;;;10.60;9.40;;;;;;;10.14;100.00;96324.83;429973;1275;139763;-67
2023/11/03 19:17:26;;;;;;;11.40;9.90;;;;;;;10.19;100.00;96338.59;429716;1276;140793;-66
2023/11/03 19:27:32;;;;;;;11.20;9.40;;;;;;;10.20;100.00;96324.33;429805;1277;139851;-65
2023/11/03 19:37:41;;;;;;;8.10;6.10;;;;;;;10.16;100.00;96330.05;429907;1274;141124;-66
2023/11/03 19:47:50;;;;;;;9.10;7.10;;;;;;;10.17;100.00;96337.63;430876;1273;140533;-65
2023/11/03 19:57:56;;;;;;;10.60;8.30;;;;;;;10.12;100.00;96326.45;430692;1270;140792;-66
2023/11/03 20:08:03;;;;;;;6.40;5.50;;;;;;;10.08;100.00;96322.02;429754;1276;140757;-66
2023/11/03 20:18:09;;;;;;;6.10;4.70;;;;;;;10.03;100.00;96335.82;430292;1270;141864;-66
2023/11/03 20:28:15;;;;;;;5.20;3.50;;;;;;;10.01;100.00;96354.77;432100;1270;139839;-65
2023/11/03 20:38:29;;;;;;;3.50;2.70;;;;;;;9.92;100.00;96378.56;429822;1276;139728;-65
2023/11/03 20:48:35;;;;;;;2.70;2.30;;;;;;;9.79;100.00;96387.67;429569;1270;140848;-66
2023/11/03 20:58:44;;;;;;;2.00;1.80;;;;;;;9.65;100.00;96394.79;429352;1275;139724;-65
2023/11/03 21:08:51;;;;;;;1.90;1.30;;;;;;;9.50;100.00;96390.79;434620;1273;140055;-65
2023/11/03 21:18:57;;;;;;;2.60;1.90;;;;;;;9.38;100.00;96397.69;429527;1273;141262;-65
2023/11/03 21:29:03;;;;;;;4.10;2.10;;;;;;;9.29;100.00;96409.74;429186;1273;141941;-66
2023/11/03 21:39:13;;;;;;;2.20;1.80;;;;;;;9.21;100.00;96424.30;429367;1273;140825;-66
2023/11/03 21:49:19;;;;;;;2.10;1.60;;;;;;;9.08;100.00;96463.82;430185;1276;139782;-65
2023/11/03 21:59:25;;;;;;;1.30;1.10;;;;;;;8.66;100.00;96494.14;429919;1276;141894;-65
2023/11/03 22:09:31;;;;;;;0.70;0.70;;;;;;;8.19;100.00;96520.14;429646;1273;141199;-66
2023/11/03 22:19:38;;;;;;;2.00;1.80;;;;;;;7.78;100.00;96559.41;430285;1270;139009;-66
2023/11/03 22:29:45;;;;;;;3.70;3.20;;;;;;;7.48;100.00;96600.52;429994;1276;140097;-66
2023/11/03 22:39:51;;;;;;;2.90;1.50;;;;;;;7.24;100.00;96627.03;430400;1270;139233;-65
2023/11/03 22:49:57;;;;;;;3.40;2.50;;;;;;;7.08;100.00;96650.21;430252;1276;140722;-66
2023/11/03 23:00:09;;;;;;;1.00;0.90;;;;;;;6.89;100.00;96678.92;430913;1270;139134;-66
2023/11/03 23:10:16;;;;;;;1.10;1.00;;;;;;;6.67;100.00;96702.90;431074;1269;139391;-66
2023/11/03 23:20:22;;;;;;;0.50;0.50;;;;;;;6.41;100.00;96735.33;430116;1275;140082;-64
2023/11/03 23:30:28;;;;;;;1.00;0.70;;;;;;;6.15;100.00;96763.85;429701;1275;139636;-65
2023/11/03 23:40:34;;;;;;;1.70;0.50;;;;;;;5.89;100.00;96789.13;429708;1273;139168;-65
2023/11/03 23:50:40;;;;;;;0.70;0.70;;;;;;;5.68;100.00;96817.61;430024;1274;139184;-64
